sensor_id;sensor_type;location;lat;lon;timestamp;temperature;humidity
11140;DHT22;5624;49.388;11.350;2022-11-30T00:00:17;3.70;99.90
11140;DHT22;5624;49.388;11.350;2022-11-30T00:02:43;3.70;99.90
11140;DHT22;5624;49.388;11.350;2022-11-30T00:05:09;3.70;99.90
11140;DHT22;5624;49.388;11.350;2022-11-30T00:07:34;3.60;99.90
11140;DHT22;5624;49.388;11.350;2022-11-30T00:10:00;3.50;99.90
11140;DHT22;5624;49.388;11.350;2022-11-30T00:12:28;3.50;99.90
11140;DHT22;5624;49.388;11.350;2022-11-30T00:14:53;3.50;99.90
11140;DHT22;5624;49.388;11.350;2022-11-30T00:17:19;3.60;99.90
11140;DHT22;5624;49.388;11.350;2022-11-30T00:19:44;3.50;99.90
11140;DHT22;5624;49.388;11.350;2022-11-30T00:22:10;3.50;99.90
11140;DHT22;5624;49.388;11.350;2022-11-30T00:24:36;3.50;99.90
11140;DHT22;5624;49.388;11.350;2022-11-30T00:27:02;3.50;99.90
11140;DHT22;5624;49.388;11.350;2022-11-30T00:29:28;3.40;99.90
11140;DHT22;5624;49.388;11.350;2022-11-30T00:31:53;3.50;99.90
11140;DHT22;5624;49.388;11.350;2022-11-30T00:34:19;3.50;99.90
11140;DHT22;5624;49.388;11.350;2022-11-30T00:36:45;3.40;99.90
11140;DHT22;5624;49.388;11.350;2022-11-30T00:39:10;3.40;99.90
11140;DHT22;5624;49.388;11.350;2022-11-30T00:41:36;3.40;99.90
11140;DHT22;5624;49.388;11.350;2022-11-30T00:44:01;3.30;99.90
11140;DHT22;5624;49.388;11.350;2022-11-30T00:46:27;3.40;99.90
11140;DHT22;5624;49.388;11.350;2022-11-30T00:48:53;3.40;99.90
11140;DHT22;5624;49.388;11.350;2022-11-30T00:51:18;3.40;99.90
11140;DHT22;5624;49.388;11.350;2022-11-30T00:53:45;3.40;99.90
11140;DHT22;5624;49.388;11.350;2022-11-30T00:56:12;3.40;99.90
11140;DHT22;5624;49.388;11.350;2022-11-30T00:58:38;3.40;99.90
11140;DHT22;5624;49.388;11.350;2022-11-30T01:01:04;3.40;99.90
11140;DHT22;5624;49.388;11.350;2022-11-30T01:03:30;3.40;99.90
11140;DHT22;5624;49.388;11.350;2022-11-30T01:06:04;3.40;99.90
11140;DHT22;5624;49.388;11.350;2022-11-30T01:08:30;3.40;99.90
11140;DHT22;5624;49.388;11.350;2022-11-30T01:11:07;3.20;99.90
11140;DHT22;5624;49.388;11.350;2022-11-30T01:13:33;3.20;99.90
11140;DHT22;5624;49.388;11.350;2022-11-30T01:15:59;3.10;99.90
11140;DHT22;5624;49.388;11.350;2022-11-30T01:18:25;3.10;99.90
11140;DHT22;5624;49.388;11.350;2022-11-30T01:20:50;3.20;99.90
11140;DHT22;5624;49.388;11.350;2022-11-30T01:23:16;3.10;99.90
11140;DHT22;5624;49.388;11.350;2022-11-30T01:25:41;3.20;99.90
11140;DHT22;5624;49.388;11.350;2022-11-30T01:28:09;3.20;99.90
11140;DHT22;5624;49.388;11.350;2022-11-30T01:30:34;3.20;99.90
11140;DHT22;5624;49.388;11.350;2022-11-30T01:33:04;3.20;99.90
11140;DHT22;5624;49.388;11.350;2022-11-30T01:35:30;3.20;99.90
11140;DHT22;5624;49.388;11.350;2022-11-30T01:37:56;3.10;99.90
11140;DHT22;5624;49.388;11.350;2022-11-30T01:40:21;3.10;99.90
11140;DHT22;5624;49.388;11.350;2022-11-30T01:42:47;3.00;99.90
11140;DHT22;5624;49.388;11.350;2022-11-30T01:45:13;3.00;99.90
11140;DHT22;5624;49.388;11.350;2022-11-30T01:47:42;3.00;99.90
11140;DHT22;5624;49.388;11.350;2022-11-30T01:50:16;3.10;99.90
11140;DHT22;5624;49.388;11.350;2022-11-30T01:52:51;3.00;99.90
11140;DHT22;5624;49.388;11.350;2022-11-30T01:55:23;3.00;99.90
11140;DHT22;5624;49.388;11.350;2022-11-30T01:57:54;3.00;99.90
11140;DHT22;5624;49.388;11.350;2022-11-30T02:00:20;3.00;99.90
11140;DHT22;5624;49.388;11.350;2022-11-30T02:03:09;3.00;99.90
11140;DHT22;5624;49.388;11.350;2022-11-30T02:05:38;2.90;99.90
11140;DHT22;5624;49.388;11.350;2022-11-30T02:08:05;3.00;99.90
11140;DHT22;5624;49.388;11.350;2022-11-30T02:10:34;3.00;99.90
11140;DHT22;5624;49.388;11.350;2022-11-30T02:13:27;2.90;99.90
11140;DHT22;5624;49.388;11.350;2022-11-30T02:21:58;3.00;99.90
11140;DHT22;5624;49.388;11.350;2022-11-30T02:29:42;2.90;99.90
11140;DHT22;5624;49.388;11.350;2022-11-30T02:32:26;3.00;99.90
11140;DHT22;5624;49.388;11.350;2022-11-30T02:34:54;3.00;99.90
11140;DHT22;5624;49.388;11.350;2022-11-30T02:37:23;3.00;99.90
11140;DHT22;5624;49.388;11.350;2022-11-30T02:39:49;3.00;99.90
11140;DHT22;5624;49.388;11.350;2022-11-30T02:42:14;3.00;99.90
11140;DHT22;5624;49.388;11.350;2022-11-30T02:44:43;2.90;99.90
11140;DHT22;5624;49.388;11.350;2022-11-30T02:50:06;2.90;99.90
11140;DHT22;5624;49.388;11.350;2022-11-30T02:52:33;2.90;99.90
11140;DHT22;5624;49.388;11.350;2022-11-30T02:55:05;2.90;99.90
11140;DHT22;5624;49.388;11.350;2022-11-30T02:57:31;2.90;99.90
11140;DHT22;5624;49.388;11.350;2022-11-30T02:59:57;2.90;99.90
11140;DHT22;5624;49.388;11.350;2022-11-30T03:02:24;2.90;99.90
11140;DHT22;5624;49.388;11.350;2022-11-30T03:04:50;2.90;99.90
11140;DHT22;5624;49.388;11.350;2022-11-30T03:07:16;2.90;99.90
11140;DHT22;5624;49.388;11.350;2022-11-30T03:09:41;2.90;99.90
11140;DHT22;5624;49.388;11.350;2022-11-30T03:12:07;2.90;99.90
11140;DHT22;5624;49.388;11.350;2022-11-30T03:14:32;2.90;99.90
11140;DHT22;5624;49.388;11.350;2022-11-30T03:16:58;2.90;99.90
11140;DHT22;5624;49.388;11.350;2022-11-30T03:19:24;2.90;99.90
11140;DHT22;5624;49.388;11.350;2022-11-30T03:21:49;2.90;99.90
11140;DHT22;5624;49.388;11.350;2022-11-30T03:24:15;2.90;99.90
11140;DHT22;5624;49.388;11.350;2022-11-30T03:26:40;2.90;99.90
11140;DHT22;5624;49.388;11.350;2022-11-30T03:29:06;3.00;99.90
11140;DHT22;5624;49.388;11.350;2022-11-30T03:31:32;2.90;99.90
11140;DHT22;5624;49.388;11.350;2022-11-30T03:33:57;2.90;99.90
11140;DHT22;5624;49.388;11.350;2022-11-30T03:36:23;2.90;99.90
11140;DHT22;5624;49.388;11.350;2022-11-30T03:38:48;2.80;99.90
11140;DHT22;5624;49.388;11.350;2022-11-30T03:41:15;3.00;99.90
11140;DHT22;5624;49.388;11.350;2022-11-30T03:43:42;2.90;99.90
11140;DHT22;5624;49.388;11.350;2022-11-30T03:46:08;2.90;99.90
11140;DHT22;5624;49.388;11.350;2022-11-30T03:48:34;2.80;99.90
11140;DHT22;5624;49.388;11.350;2022-11-30T03:51:03;2.80;99.90
11140;DHT22;5624;49.388;11.350;2022-11-30T03:53:29;2.80;99.90
11140;DHT22;5624;49.388;11.350;2022-11-30T03:55:57;2.90;99.90
11140;DHT22;5624;49.388;11.350;2022-11-30T03:58:24;2.80;99.90
11140;DHT22;5624;49.388;11.350;2022-11-30T04:01:16;2.90;99.90
11140;DHT22;5624;49.388;11.350;2022-11-30T04:03:42;2.90;99.90
11140;DHT22;5624;49.388;11.350;2022-11-30T04:06:10;2.90;99.90
11140;DHT22;5624;49.388;11.350;2022-11-30T04:08:37;2.90;99.90
11140;DHT22;5624;49.388;11.350;2022-11-30T04:11:04;2.90;99.90
11140;DHT22;5624;49.388;11.350;2022-11-30T04:13:31;2.90;99.90
11140;DHT22;5624;49.388;11.350;2022-11-30T04:15:57;2.80;99.90
11140;DHT22;5624;49.388;11.350;2022-11-30T04:18:25;2.80;99.90
11140;DHT22;5624;49.388;11.350;2022-11-30T04:20:52;2.70;99.90
11140;DHT22;5624;49.388;11.350;2022-11-30T04:23:18;2.70;99.90
11140;DHT22;5624;49.388;11.350;2022-11-30T04:25:45;2.70;99.90
11140;DHT22;5624;49.388;11.350;2022-11-30T04:28:12;2.90;99.90
11140;DHT22;5624;49.388;11.350;2022-11-30T04:30:38;2.90;99.90
11140;DHT22;5624;49.388;11.350;2022-11-30T04:33:04;2.80;99.90
11140;DHT22;5624;49.388;11.350;2022-11-30T04:35:30;2.80;99.90
11140;DHT22;5624;49.388;11.350;2022-11-30T04:37:57;2.80;99.90
11140;DHT22;5624;49.388;11.350;2022-11-30T04:40:22;2.90;99.90
11140;DHT22;5624;49.388;11.350;2022-11-30T04:42:48;2.90;99.90
11140;DHT22;5624;49.388;11.350;2022-11-30T04:45:13;2.90;99.90
11140;DHT22;5624;49.388;11.350;2022-11-30T04:47:39;2.80;99.90
11140;DHT22;5624;49.388;11.350;2022-11-30T04:50:06;2.80;99.90
11140;DHT22;5624;49.388;11.350;2022-11-30T04:52:33;2.70;99.90
11140;DHT22;5624;49.388;11.350;2022-11-30T04:54:59;2.80;99.90
11140;DHT22;5624;49.388;11.350;2022-11-30T04:57:24;2.70;99.90
11140;DHT22;5624;49.388;11.350;2022-11-30T04:59:50;2.70;99.90
11140;DHT22;5624;49.388;11.350;2022-11-30T05:02:16;2.70;99.90
11140;DHT22;5624;49.388;11.350;2022-11-30T05:04:41;2.70;99.90
11140;DHT22;5624;49.388;11.350;2022-11-30T05:07:07;2.60;99.90
11140;DHT22;5624;49.388;11.350;2022-11-30T05:09:33;2.60;99.90
11140;DHT22;5624;49.388;11.350;2022-11-30T05:11:58;2.60;99.90
11140;DHT22;5624;49.388;11.350;2022-11-30T05:14:24;2.60;99.90
11140;DHT22;5624;49.388;11.350;2022-11-30T05:16:50;2.60;99.90
11140;DHT22;5624;49.388;11.350;2022-11-30T05:19:16;2.60;99.90
11140;DHT22;5624;49.388;11.350;2022-11-30T05:21:42;2.60;99.60
11140;DHT22;5624;49.388;11.350;2022-11-30T05:24:08;2.50;99.90
11140;DHT22;5624;49.388;11.350;2022-11-30T05:26:34;2.50;99.90
11140;DHT22;5624;49.388;11.350;2022-11-30T05:29:00;2.60;99.50
11140;DHT22;5624;49.388;11.350;2022-11-30T05:31:26;2.50;99.90
11140;DHT22;5624;49.388;11.350;2022-11-30T05:33:52;2.50;99.90
11140;DHT22;5624;49.388;11.350;2022-11-30T05:36:18;2.50;99.90
11140;DHT22;5624;49.388;11.350;2022-11-30T05:38:45;2.60;99.90
11140;DHT22;5624;49.388;11.350;2022-11-30T05:41:11;2.60;99.40
11140;DHT22;5624;49.388;11.350;2022-11-30T05:43:36;2.60;99.50
11140;DHT22;5624;49.388;11.350;2022-11-30T05:46:04;2.50;99.90
11140;DHT22;5624;49.388;11.350;2022-11-30T05:48:31;2.50;99.90
11140;DHT22;5624;49.388;11.350;2022-11-30T05:51:08;2.50;99.90
11140;DHT22;5624;49.388;11.350;2022-11-30T05:53:34;2.50;99.90
11140;DHT22;5624;49.388;11.350;2022-11-30T05:56:02;2.50;99.80
11140;DHT22;5624;49.388;11.350;2022-11-30T05:58:28;2.50;99.80
11140;DHT22;5624;49.388;11.350;2022-11-30T06:00:53;2.40;99.80
11140;DHT22;5624;49.388;11.350;2022-11-30T06:03:19;2.40;99.50
11140;DHT22;5624;49.388;11.350;2022-11-30T06:05:44;2.40;99.90
11140;DHT22;5624;49.388;11.350;2022-11-30T06:08:10;2.50;99.60
11140;DHT22;5624;49.388;11.350;2022-11-30T06:10:35;2.40;99.60
11140;DHT22;5624;49.388;11.350;2022-11-30T06:13:06;2.30;99.80
11140;DHT22;5624;49.388;11.350;2022-11-30T06:15:32;2.30;99.90
11140;DHT22;5624;49.388;11.350;2022-11-30T06:17:58;2.40;99.90
11140;DHT22;5624;49.388;11.350;2022-11-30T06:20:23;2.40;99.50
11140;DHT22;5624;49.388;11.350;2022-11-30T06:22:49;2.40;99.90
11140;DHT22;5624;49.388;11.350;2022-11-30T06:25:14;2.40;99.90
11140;DHT22;5624;49.388;11.350;2022-11-30T06:27:40;2.40;99.80
11140;DHT22;5624;49.388;11.350;2022-11-30T06:30:08;2.40;99.60
11140;DHT22;5624;49.388;11.350;2022-11-30T06:32:34;2.50;99.70
11140;DHT22;5624;49.388;11.350;2022-11-30T06:34:59;2.40;99.80
11140;DHT22;5624;49.388;11.350;2022-11-30T06:37:25;2.50;99.50
11140;DHT22;5624;49.388;11.350;2022-11-30T06:39:51;2.50;99.70
11140;DHT22;5624;49.388;11.350;2022-11-30T06:42:17;2.40;99.50
11140;DHT22;5624;49.388;11.350;2022-11-30T06:44:44;2.40;99.60
11140;DHT22;5624;49.388;11.350;2022-11-30T06:47:10;2.30;99.30
11140;DHT22;5624;49.388;11.350;2022-11-30T06:49:36;2.30;99.70
11140;DHT22;5624;49.388;11.350;2022-11-30T06:52:02;2.30;99.90
11140;DHT22;5624;49.388;11.350;2022-11-30T06:54:27;2.20;99.90
11140;DHT22;5624;49.388;11.350;2022-11-30T06:56:53;2.30;99.80
11140;DHT22;5624;49.388;11.350;2022-11-30T06:59:18;2.20;99.90
11140;DHT22;5624;49.388;11.350;2022-11-30T07:01:44;2.30;99.90
11140;DHT22;5624;49.388;11.350;2022-11-30T07:04:09;2.20;99.90
11140;DHT22;5624;49.388;11.350;2022-11-30T07:06:35;2.20;99.90
11140;DHT22;5624;49.388;11.350;2022-11-30T07:09:01;2.20;99.90
11140;DHT22;5624;49.388;11.350;2022-11-30T07:11:26;2.20;99.90
11140;DHT22;5624;49.388;11.350;2022-11-30T07:13:52;2.20;99.90
11140;DHT22;5624;49.388;11.350;2022-11-30T07:16:17;2.20;99.90
11140;DHT22;5624;49.388;11.350;2022-11-30T07:18:43;2.20;99.90
11140;DHT22;5624;49.388;11.350;2022-11-30T07:21:09;2.20;99.90
11140;DHT22;5624;49.388;11.350;2022-11-30T07:23:35;2.30;99.90
11140;DHT22;5624;49.388;11.350;2022-11-30T07:26:19;2.20;99.90
11140;DHT22;5624;49.388;11.350;2022-11-30T07:28:46;2.20;99.90
11140;DHT22;5624;49.388;11.350;2022-11-30T07:31:19;2.20;99.90
11140;DHT22;5624;49.388;11.350;2022-11-30T07:33:46;2.20;99.90
11140;DHT22;5624;49.388;11.350;2022-11-30T07:36:12;2.30;99.90
11140;DHT22;5624;49.388;11.350;2022-11-30T07:38:38;2.30;99.90
11140;DHT22;5624;49.388;11.350;2022-11-30T07:41:05;2.20;99.90
11140;DHT22;5624;49.388;11.350;2022-11-30T07:43:30;2.20;99.90
11140;DHT22;5624;49.388;11.350;2022-11-30T07:45:56;2.10;99.90
11140;DHT22;5624;49.388;11.350;2022-11-30T07:48:22;2.20;99.90
11140;DHT22;5624;49.388;11.350;2022-11-30T07:50:48;2.20;99.90
11140;DHT22;5624;49.388;11.350;2022-11-30T07:53:14;2.20;99.90
11140;DHT22;5624;49.388;11.350;2022-11-30T07:55:41;2.20;99.90
11140;DHT22;5624;49.388;11.350;2022-11-30T07:58:07;2.30;99.90
11140;DHT22;5624;49.388;11.350;2022-11-30T08:00:37;2.20;99.90
11140;DHT22;5624;49.388;11.350;2022-11-30T08:03:03;2.20;99.30
11140;DHT22;5624;49.388;11.350;2022-11-30T08:05:29;2.10;99.60
11140;DHT22;5624;49.388;11.350;2022-11-30T08:07:55;2.10;99.90
11140;DHT22;5624;49.388;11.350;2022-11-30T08:10:22;2.10;99.90
11140;DHT22;5624;49.388;11.350;2022-11-30T08:12:48;2.10;99.90
11140;DHT22;5624;49.388;11.350;2022-11-30T08:15:14;2.10;99.60
11140;DHT22;5624;49.388;11.350;2022-11-30T08:17:40;2.10;99.90
11140;DHT22;5624;49.388;11.350;2022-11-30T08:20:08;2.20;99.90
11140;DHT22;5624;49.388;11.350;2022-11-30T08:22:34;2.20;99.40
11140;DHT22;5624;49.388;11.350;2022-11-30T08:25:00;2.20;99.80
11140;DHT22;5624;49.388;11.350;2022-11-30T08:27:26;2.20;99.70
11140;DHT22;5624;49.388;11.350;2022-11-30T08:29:52;2.20;99.60
11140;DHT22;5624;49.388;11.350;2022-11-30T08:32:18;2.20;98.90
11140;DHT22;5624;49.388;11.350;2022-11-30T08:34:43;2.20;99.30
11140;DHT22;5624;49.388;11.350;2022-11-30T08:37:09;2.20;99.20
11140;DHT22;5624;49.388;11.350;2022-11-30T08:39:35;2.20;98.70
11140;DHT22;5624;49.388;11.350;2022-11-30T08:42:02;2.20;98.30
11140;DHT22;5624;49.388;11.350;2022-11-30T08:44:28;2.20;98.20
11140;DHT22;5624;49.388;11.350;2022-11-30T08:46:54;2.30;98.20
11140;DHT22;5624;49.388;11.350;2022-11-30T08:49:20;2.30;99.30
11140;DHT22;5624;49.388;11.350;2022-11-30T08:51:47;2.30;99.20
11140;DHT22;5624;49.388;11.350;2022-11-30T08:54:13;2.30;98.40
11140;DHT22;5624;49.388;11.350;2022-11-30T08:56:38;2.30;98.10
11140;DHT22;5624;49.388;11.350;2022-11-30T08:59:04;2.30;98.40
11140;DHT22;5624;49.388;11.350;2022-11-30T09:01:30;2.20;98.70
11140;DHT22;5624;49.388;11.350;2022-11-30T09:03:56;2.30;99.30
11140;DHT22;5624;49.388;11.350;2022-11-30T09:06:24;2.30;98.50
11140;DHT22;5624;49.388;11.350;2022-11-30T09:08:51;2.30;98.00
11140;DHT22;5624;49.388;11.350;2022-11-30T09:11:20;2.30;97.80
11140;DHT22;5624;49.388;11.350;2022-11-30T09:13:47;2.30;98.40
11140;DHT22;5624;49.388;11.350;2022-11-30T09:16:17;2.30;97.80
11140;DHT22;5624;49.388;11.350;2022-11-30T09:18:44;2.20;98.40
11140;DHT22;5624;49.388;11.350;2022-11-30T09:21:12;2.30;98.10
11140;DHT22;5624;49.388;11.350;2022-11-30T09:23:38;2.30;97.50
11140;DHT22;5624;49.388;11.350;2022-11-30T09:26:06;2.30;97.00
11140;DHT22;5624;49.388;11.350;2022-11-30T09:28:34;2.30;97.30
11140;DHT22;5624;49.388;11.350;2022-11-30T09:33:26;2.20;97.50
11140;DHT22;5624;49.388;11.350;2022-11-30T09:36:01;2.20;98.10
11140;DHT22;5624;49.388;11.350;2022-11-30T09:38:27;2.30;97.40
11140;DHT22;5624;49.388;11.350;2022-11-30T09:40:54;2.30;97.70
11140;DHT22;5624;49.388;11.350;2022-11-30T09:43:50;2.20;97.80
11140;DHT22;5624;49.388;11.350;2022-11-30T09:46:25;2.20;97.30
11140;DHT22;5624;49.388;11.350;2022-11-30T09:49:00;2.20;98.00
11140;DHT22;5624;49.388;11.350;2022-11-30T09:51:44;2.30;97.60
11140;DHT22;5624;49.388;11.350;2022-11-30T09:54:36;2.40;97.80
11140;DHT22;5624;49.388;11.350;2022-11-30T10:00:16;2.30;96.70
11140;DHT22;5624;49.388;11.350;2022-11-30T10:02:43;2.40;96.40
11140;DHT22;5624;49.388;11.350;2022-11-30T10:05:15;2.30;96.60
11140;DHT22;5624;49.388;11.350;2022-11-30T10:10:41;2.30;96.40
11140;DHT22;5624;49.388;11.350;2022-11-30T10:13:35;2.30;95.60
11140;DHT22;5624;49.388;11.350;2022-11-30T10:16:29;2.30;95.90
11140;DHT22;5624;49.388;11.350;2022-11-30T10:21:54;2.40;95.70
11140;DHT22;5624;49.388;11.350;2022-11-30T10:26:56;2.20;95.40
11140;DHT22;5624;49.388;11.350;2022-11-30T10:29:43;2.30;96.10
11140;DHT22;5624;49.388;11.350;2022-11-30T10:32:18;2.30;95.80
11140;DHT22;5624;49.388;11.350;2022-11-30T10:34:48;2.20;95.30
11140;DHT22;5624;49.388;11.350;2022-11-30T10:37:33;2.10;95.20
11140;DHT22;5624;49.388;11.350;2022-11-30T10:40:09;2.20;94.70
11140;DHT22;5624;49.388;11.350;2022-11-30T10:42:45;2.20;94.50
11140;DHT22;5624;49.388;11.350;2022-11-30T10:45:31;2.20;94.20
11140;DHT22;5624;49.388;11.350;2022-11-30T10:48:32;2.30;94.60
11140;DHT22;5624;49.388;11.350;2022-11-30T10:51:00;2.10;93.40
11140;DHT22;5624;49.388;11.350;2022-11-30T10:53:26;2.20;94.00
11140;DHT22;5624;49.388;11.350;2022-11-30T10:56:06;2.30;93.70
11140;DHT22;5624;49.388;11.350;2022-11-30T10:58:54;2.30;93.10
11140;DHT22;5624;49.388;11.350;2022-11-30T11:01:38;2.30;94.30
11140;DHT22;5624;49.388;11.350;2022-11-30T11:04:16;2.50;92.10
11140;DHT22;5624;49.388;11.350;2022-11-30T11:06:48;2.40;92.30
11140;DHT22;5624;49.388;11.350;2022-11-30T11:14:48;2.30;92.50
11140;DHT22;5624;49.388;11.350;2022-11-30T11:17:31;2.40;92.50
11140;DHT22;5624;49.388;11.350;2022-11-30T11:19:58;2.50;91.90
11140;DHT22;5624;49.388;11.350;2022-11-30T11:22:26;2.40;91.60
11140;DHT22;5624;49.388;11.350;2022-11-30T11:25:08;2.30;92.10
11140;DHT22;5624;49.388;11.350;2022-11-30T11:27:35;2.30;91.70
11140;DHT22;5624;49.388;11.350;2022-11-30T11:30:43;2.40;91.60
11140;DHT22;5624;49.388;11.350;2022-11-30T11:33:01;2.50;91.00
11140;DHT22;5624;49.388;11.350;2022-11-30T11:43:26;2.20;91.70
11140;DHT22;5624;49.388;11.350;2022-11-30T11:45:55;2.20;92.70
11140;DHT22;5624;49.388;11.350;2022-11-30T11:48:34;2.20;92.70
11140;DHT22;5624;49.388;11.350;2022-11-30T11:51:06;2.20;92.60
11140;DHT22;5624;49.388;11.350;2022-11-30T11:53:50;2.30;92.90
11140;DHT22;5624;49.388;11.350;2022-11-30T11:56:31;2.20;92.60
11140;DHT22;5624;49.388;11.350;2022-11-30T12:12:33;2.30;91.50
11140;DHT22;5624;49.388;11.350;2022-11-30T12:15:00;2.30;91.00
11140;DHT22;5624;49.388;11.350;2022-11-30T12:17:40;2.40;91.20
11140;DHT22;5624;49.388;11.350;2022-11-30T12:20:47;2.40;90.10
11140;DHT22;5624;49.388;11.350;2022-11-30T12:31:15;2.40;89.30
11140;DHT22;5624;49.388;11.350;2022-11-30T12:36:44;2.50;89.90
11140;DHT22;5624;49.388;11.350;2022-11-30T12:39:49;2.50;88.90
11140;DHT22;5624;49.388;11.350;2022-11-30T12:42:17;2.50;88.50
11140;DHT22;5624;49.388;11.350;2022-11-30T12:44:52;2.50;88.70
11140;DHT22;5624;49.388;11.350;2022-11-30T12:50:19;2.40;87.60
11140;DHT22;5624;49.388;11.350;2022-11-30T12:56:09;2.30;89.00
11140;DHT22;5624;49.388;11.350;2022-11-30T13:01:47;2.30;88.50
11140;DHT22;5624;49.388;11.350;2022-11-30T13:04:35;2.30;89.10
11140;DHT22;5624;49.388;11.350;2022-11-30T13:07:06;2.30;87.90
11140;DHT22;5624;49.388;11.350;2022-11-30T13:09:45;2.20;89.10
11140;DHT22;5624;49.388;11.350;2022-11-30T13:12:34;2.20;89.40
11140;DHT22;5624;49.388;11.350;2022-11-30T13:15:08;2.30;89.20
11140;DHT22;5624;49.388;11.350;2022-11-30T13:17:35;2.30;88.80
11140;DHT22;5624;49.388;11.350;2022-11-30T13:20:15;2.30;88.80
11140;DHT22;5624;49.388;11.350;2022-11-30T13:22:54;2.30;88.60
11140;DHT22;5624;49.388;11.350;2022-11-30T13:25:37;2.30;88.90
11140;DHT22;5624;49.388;11.350;2022-11-30T13:33:46;2.30;90.00
11140;DHT22;5624;49.388;11.350;2022-11-30T13:36:42;2.30;89.60
11140;DHT22;5624;49.388;11.350;2022-11-30T13:39:30;2.30;89.60
11140;DHT22;5624;49.388;11.350;2022-11-30T13:44:36;2.20;89.40
11140;DHT22;5624;49.388;11.350;2022-11-30T13:47:05;2.30;89.30
11140;DHT22;5624;49.388;11.350;2022-11-30T13:49:38;2.30;89.40
11140;DHT22;5624;49.388;11.350;2022-11-30T13:52:05;2.20;89.60
11140;DHT22;5624;49.388;11.350;2022-11-30T13:59:58;2.10;89.30
11140;DHT22;5624;49.388;11.350;2022-11-30T14:10:41;2.10;89.60
11140;DHT22;5624;49.388;11.350;2022-11-30T14:20:56;2.00;89.80
11140;DHT22;5624;49.388;11.350;2022-11-30T14:23:46;1.90;90.70
11140;DHT22;5624;49.388;11.350;2022-11-30T14:26:14;2.00;90.30
11140;DHT22;5624;49.388;11.350;2022-11-30T14:28:56;2.00;90.10
11140;DHT22;5624;49.388;11.350;2022-11-30T14:31:29;2.00;90.20
11140;DHT22;5624;49.388;11.350;2022-11-30T14:36:36;2.00;90.90
11140;DHT22;5624;49.388;11.350;2022-11-30T14:39:22;2.00;90.20
11140;DHT22;5624;49.388;11.350;2022-11-30T14:41:49;2.00;90.10
11140;DHT22;5624;49.388;11.350;2022-11-30T14:44:15;1.90;90.30
11140;DHT22;5624;49.388;11.350;2022-11-30T14:46:41;1.90;90.10
11140;DHT22;5624;49.388;11.350;2022-11-30T14:49:20;1.80;91.10
11140;DHT22;5624;49.388;11.350;2022-11-30T14:51:59;1.90;90.50
11140;DHT22;5624;49.388;11.350;2022-11-30T14:57:30;1.70;90.20
11140;DHT22;5624;49.388;11.350;2022-11-30T14:59:59;1.70;90.30
11140;DHT22;5624;49.388;11.350;2022-11-30T15:02:29;1.70;89.50
11140;DHT22;5624;49.388;11.350;2022-11-30T15:04:55;1.70;89.60
11140;DHT22;5624;49.388;11.350;2022-11-30T15:07:23;1.50;89.70
11140;DHT22;5624;49.388;11.350;2022-11-30T15:09:54;1.50;90.00
11140;DHT22;5624;49.388;11.350;2022-11-30T15:12:23;1.40;89.90
11140;DHT22;5624;49.388;11.350;2022-11-30T15:15:20;1.30;90.00
11140;DHT22;5624;49.388;11.350;2022-11-30T15:20:21;1.40;90.30
11140;DHT22;5624;49.388;11.350;2022-11-30T15:22:47;1.40;90.30
11140;DHT22;5624;49.388;11.350;2022-11-30T15:25:13;1.40;90.70
11140;DHT22;5624;49.388;11.350;2022-11-30T15:27:39;1.40;90.50
11140;DHT22;5624;49.388;11.350;2022-11-30T15:30:05;1.40;90.20
11140;DHT22;5624;49.388;11.350;2022-11-30T15:32:31;1.30;90.70
11140;DHT22;5624;49.388;11.350;2022-11-30T15:34:58;1.30;90.50
11140;DHT22;5624;49.388;11.350;2022-11-30T15:37:38;1.30;91.10
11140;DHT22;5624;49.388;11.350;2022-11-30T15:40:07;1.40;90.60
11140;DHT22;5624;49.388;11.350;2022-11-30T15:42:35;1.40;91.20
11140;DHT22;5624;49.388;11.350;2022-11-30T15:45:23;1.40;90.80
11140;DHT22;5624;49.388;11.350;2022-11-30T15:47:50;1.40;90.70
11140;DHT22;5624;49.388;11.350;2022-11-30T15:52:52;1.30;91.00
11140;DHT22;5624;49.388;11.350;2022-11-30T16:01:07;1.30;91.60
11140;DHT22;5624;49.388;11.350;2022-11-30T16:06:19;1.30;90.50
11140;DHT22;5624;49.388;11.350;2022-11-30T16:08:46;1.40;90.50
11140;DHT22;5624;49.388;11.350;2022-11-30T16:11:12;1.30;90.20
11140;DHT22;5624;49.388;11.350;2022-11-30T16:13:39;1.30;90.30
11140;DHT22;5624;49.388;11.350;2022-11-30T16:16:11;1.20;90.30
11140;DHT22;5624;49.388;11.350;2022-11-30T16:18:37;1.10;90.50
11140;DHT22;5624;49.388;11.350;2022-11-30T16:21:03;1.10;90.50
11140;DHT22;5624;49.388;11.350;2022-11-30T16:23:29;1.10;91.20
11140;DHT22;5624;49.388;11.350;2022-11-30T16:25:57;1.10;90.50
11140;DHT22;5624;49.388;11.350;2022-11-30T16:28:23;1.10;90.50
11140;DHT22;5624;49.388;11.350;2022-11-30T16:30:49;1.00;91.00
11140;DHT22;5624;49.388;11.350;2022-11-30T16:33:20;1.00;91.00
11140;DHT22;5624;49.388;11.350;2022-11-30T16:35:55;0.90;91.50
11140;DHT22;5624;49.388;11.350;2022-11-30T16:38:21;0.90;91.30
11140;DHT22;5624;49.388;11.350;2022-11-30T16:40:47;0.90;90.60
11140;DHT22;5624;49.388;11.350;2022-11-30T16:43:13;0.90;90.90
11140;DHT22;5624;49.388;11.350;2022-11-30T16:45:40;1.00;89.60
11140;DHT22;5624;49.388;11.350;2022-11-30T16:48:08;1.00;89.60
11140;DHT22;5624;49.388;11.350;2022-11-30T16:50:34;1.00;89.10
11140;DHT22;5624;49.388;11.350;2022-11-30T16:53:01;0.90;88.70
11140;DHT22;5624;49.388;11.350;2022-11-30T16:55:30;0.90;89.00
11140;DHT22;5624;49.388;11.350;2022-11-30T16:57:56;0.90;89.10
11140;DHT22;5624;49.388;11.350;2022-11-30T17:00:22;0.90;89.20
11140;DHT22;5624;49.388;11.350;2022-11-30T17:05:19;0.90;89.30
11140;DHT22;5624;49.388;11.350;2022-11-30T17:07:45;0.90;89.10
11140;DHT22;5624;49.388;11.350;2022-11-30T17:10:10;0.90;89.70
11140;DHT22;5624;49.388;11.350;2022-11-30T17:12:36;0.90;89.60
11140;DHT22;5624;49.388;11.350;2022-11-30T17:15:03;0.90;89.20
11140;DHT22;5624;49.388;11.350;2022-11-30T17:17:29;1.00;88.40
11140;DHT22;5624;49.388;11.350;2022-11-30T17:19:55;1.00;89.00
11140;DHT22;5624;49.388;11.350;2022-11-30T17:22:20;1.00;88.80
11140;DHT22;5624;49.388;11.350;2022-11-30T17:24:46;1.00;89.00
11140;DHT22;5624;49.388;11.350;2022-11-30T17:27:11;1.00;89.10
11140;DHT22;5624;49.388;11.350;2022-11-30T17:29:37;1.10;89.40
11140;DHT22;5624;49.388;11.350;2022-11-30T17:32:04;1.20;88.70
11140;DHT22;5624;49.388;11.350;2022-11-30T17:34:30;1.10;89.10
11140;DHT22;5624;49.388;11.350;2022-11-30T17:36:56;1.10;88.30
11140;DHT22;5624;49.388;11.350;2022-11-30T17:39:22;1.10;88.30
11140;DHT22;5624;49.388;11.350;2022-11-30T17:41:48;1.10;87.70
11140;DHT22;5624;49.388;11.350;2022-11-30T17:44:14;1.00;87.60
11140;DHT22;5624;49.388;11.350;2022-11-30T17:46:40;1.00;87.90
11140;DHT22;5624;49.388;11.350;2022-11-30T17:49:05;1.00;88.10
11140;DHT22;5624;49.388;11.350;2022-11-30T17:51:31;1.00;87.80
11140;DHT22;5624;49.388;11.350;2022-11-30T17:53:57;1.00;87.40
11140;DHT22;5624;49.388;11.350;2022-11-30T17:56:23;1.00;88.00
11140;DHT22;5624;49.388;11.350;2022-11-30T17:58:50;1.00;87.80
11140;DHT22;5624;49.388;11.350;2022-11-30T18:01:24;1.00;87.80
11140;DHT22;5624;49.388;11.350;2022-11-30T18:03:51;0.90;87.80